sensor_id;sensor_type;location;lat;lon;timestamp;P1;durP1;ratioP1;P2;durP2;ratioP2
49548;SDS011;35450;44.518;7.466;2024-03-25T04:53:07;1.52;;;0.20;;
49548;SDS011;35450;44.518;7.466;2024-03-25T04:56:12;1.15;;;0.20;;
49548;SDS011;35450;44.518;7.466;2024-03-25T04:59:16;0.10;;;0.10;;
49548;SDS011;35450;44.518;7.466;2024-03-25T05:02:20;0.20;;;0.15;;
49548;SDS011;35450;44.518;7.466;2024-03-25T05:05:23;2.75;;;0.45;;
49548;SDS011;35450;44.518;7.466;2024-03-25T05:08:27;2.10;;;0.22;;
49548;SDS011;35450;44.518;7.466;2024-03-25T05:11:32;1.73;;;0.20;;
49548;SDS011;35450;44.518;7.466;2024-03-25T05:14:36;0.35;;;0.28;;
49548;SDS011;35450;44.518;7.466;2024-03-25T05:17:40;2.17;;;0.20;;
49548;SDS011;35450;44.518;7.466;2024-03-25T05:20:44;0.63;;;0.22;;
49548;SDS011;35450;44.518;7.466;2024-03-25T05:23:48;1.17;;;0.43;;
49548;SDS011;35450;44.518;7.466;2024-03-25T05:26:52;0.55;;;0.10;;
49548;SDS011;35450;44.518;7.466;2024-03-25T05:29:56;1.48;;;0.20;;
49548;SDS011;35450;44.518;7.466;2024-03-25T05:33:00;0.30;;;0.20;;
49548;SDS011;35450;44.518;7.466;2024-03-25T05:36:04;0.63;;;0.10;;
49548;SDS011;35450;44.518;7.466;2024-03-25T05:39:08;0.35;;;0.20;;
49548;SDS011;35450;44.518;7.466;2024-03-25T05:42:12;3.22;;;0.20;;
49548;SDS011;35450;44.518;7.466;2024-03-25T05:45:16;2.50;;;0.22;;
49548;SDS011;35450;44.518;7.466;2024-03-25T05:48:20;0.90;;;0.30;;
49548;SDS011;35450;44.518;7.466;2024-03-25T05:51:24;1.75;;;0.98;;
49548;SDS011;35450;44.518;7.466;2024-03-25T05:54:28;5.25;;;0.75;;
49548;SDS011;35450;44.518;7.466;2024-03-25T05:57:32;2.55;;;1.13;;
49548;SDS011;35450;44.518;7.466;2024-03-25T06:00:36;3.83;;;2.03;;
49548;SDS011;35450;44.518;7.466;2024-03-25T06:03:39;1.23;;;0.40;;
49548;SDS011;35450;44.518;7.466;2024-03-25T06:06:43;1.00;;;0.30;;
49548;SDS011;35450;44.518;7.466;2024-03-25T06:09:47;1.00;;;0.50;;
49548;SDS011;35450;44.518;7.466;2024-03-25T06:12:51;3.15;;;0.47;;
49548;SDS011;35450;44.518;7.466;2024-03-25T06:15:55;4.28;;;0.50;;
49548;SDS011;35450;44.518;7.466;2024-03-25T06:18:59;15.80;;;0.95;;
49548;SDS011;35450;44.518;7.466;2024-03-25T06:22:03;0.95;;;0.32;;
49548;SDS011;35450;44.518;7.466;2024-03-25T06:25:07;1.83;;;0.60;;
49548;SDS011;35450;44.518;7.466;2024-03-25T06:28:11;0.82;;;0.32;;
49548;SDS011;35450;44.518;7.466;2024-03-25T06:31:15;1.85;;;0.60;;
49548;SDS011;35450;44.518;7.466;2024-03-25T06:34:38;9.75;;;0.80;;
49548;SDS011;35450;44.518;7.466;2024-03-25T06:37:42;1.10;;;0.68;;
49548;SDS011;35450;44.518;7.466;2024-03-25T06:40:46;3.15;;;0.73;;
49548;SDS011;35450;44.518;7.466;2024-03-25T06:43:50;4.35;;;0.75;;
49548;SDS011;35450;44.518;7.466;2024-03-25T06:46:54;1.85;;;0.82;;
49548;SDS011;35450;44.518;7.466;2024-03-25T06:49:59;4.32;;;0.95;;
49548;SDS011;35450;44.518;7.466;2024-03-25T06:53:03;2.42;;;1.23;;
49548;SDS011;35450;44.518;7.466;2024-03-25T06:56:07;22.10;;;1.45;;
49548;SDS011;35450;44.518;7.466;2024-03-25T06:59:11;1.58;;;0.75;;
49548;SDS011;35450;44.518;7.466;2024-03-25T07:02:15;3.20;;;1.02;;
49548;SDS011;35450;44.518;7.466;2024-03-25T07:05:19;9.20;;;0.90;;
49548;SDS011;35450;44.518;7.466;2024-03-25T07:08:24;7.22;;;0.90;;
49548;SDS011;35450;44.518;7.466;2024-03-25T07:11:27;5.00;;;1.45;;
49548;SDS011;35450;44.518;7.466;2024-03-25T07:14:31;10.45;;;1.50;;
49548;SDS011;35450;44.518;7.466;2024-03-25T07:17:35;8.50;;;3.42;;
49548;SDS011;35450;44.518;7.466;2024-03-25T07:20:40;5.88;;;2.10;;
49548;SDS011;35450;44.518;7.466;2024-03-25T07:23:44;4.60;;;1.20;;
49548;SDS011;35450;44.518;7.466;2024-03-25T07:26:48;9.77;;;1.10;;
49548;SDS011;35450;44.518;7.466;2024-03-25T07:29:54;3.63;;;0.75;;
49548;SDS011;35450;44.518;7.466;2024-03-25T07:32:58;1.95;;;0.60;;
49548;SDS011;35450;44.518;7.466;2024-03-25T07:36:04;2.13;;;0.90;;
49548;SDS011;35450;44.518;7.466;2024-03-25T07:39:08;2.17;;;0.90;;
49548;SDS011;35450;44.518;7.466;2024-03-25T07:42:14;1.58;;;0.82;;
49548;SDS011;35450;44.518;7.466;2024-03-25T07:45:18;9.05;;;1.50;;
49548;SDS011;35450;44.518;7.466;2024-03-25T07:48:22;1.15;;;0.55;;
49548;SDS011;35450;44.518;7.466;2024-03-25T07:51:26;1.65;;;0.30;;
49548;SDS011;35450;44.518;7.466;2024-03-25T07:54:30;3.28;;;0.30;;
49548;SDS011;35450;44.518;7.466;2024-03-25T07:57:34;1.80;;;0.30;;
49548;SDS011;35450;44.518;7.466;2024-03-25T08:00:42;5.85;;;0.50;;
49548;SDS011;35450;44.518;7.466;2024-03-25T08:03:46;1.00;;;0.40;;
49548;SDS011;35450;44.518;7.466;2024-03-25T08:06:50;2.03;;;0.35;;
49548;SDS011;35450;44.518;7.466;2024-03-25T08:09:54;0.50;;;0.28;;
49548;SDS011;35450;44.518;7.466;2024-03-25T08:12:58;3.13;;;0.40;;
49548;SDS011;35450;44.518;7.466;2024-03-25T08:16:02;1.23;;;0.40;;
49548;SDS011;35450;44.518;7.466;2024-03-25T08:19:07;3.25;;;0.52;;
49548;SDS011;35450;44.518;7.466;2024-03-25T08:22:11;7.45;;;0.80;;
49548;SDS011;35450;44.518;7.466;2024-03-25T08:25:16;4.93;;;0.80;;
49548;SDS011;35450;44.518;7.466;2024-03-25T08:28:20;3.25;;;0.98;;
49548;SDS011;35450;44.518;7.466;2024-03-25T08:31:24;3.00;;;0.82;;
49548;SDS011;35450;44.518;7.466;2024-03-25T08:34:28;7.57;;;1.10;;
49548;SDS011;35450;44.518;7.466;2024-03-25T08:37:32;6.82;;;1.17;;
49548;SDS011;35450;44.518;7.466;2024-03-25T08:40:36;2.35;;;0.80;;
49548;SDS011;35450;44.518;7.466;2024-03-25T08:43:40;12.00;;;1.50;;
49548;SDS011;35450;44.518;7.466;2024-03-25T08:46:44;2.25;;;0.52;;
49548;SDS011;35450;44.518;7.466;2024-03-25T08:49:48;2.85;;;0.88;;
49548;SDS011;35450;44.518;7.466;2024-03-25T08:52:52;0.50;;;0.30;;
49548;SDS011;35450;44.518;7.466;2024-03-25T08:55:57;3.85;;;0.50;;
49548;SDS011;35450;44.518;7.466;2024-03-25T08:59:01;2.58;;;0.40;;
49548;SDS011;35450;44.518;7.466;2024-03-25T09:02:05;3.40;;;0.60;;
49548;SDS011;35450;44.518;7.466;2024-03-25T09:05:10;0.77;;;0.40;;
49548;SDS011;35450;44.518;7.466;2024-03-25T09:08:14;1.02;;;0.50;;
49548;SDS011;35450;44.518;7.466;2024-03-25T09:11:18;0.73;;;0.32;;
49548;SDS011;35450;44.518;7.466;2024-03-25T09:14:22;1.33;;;0.40;;
49548;SDS011;35450;44.518;7.466;2024-03-25T09:17:26;0.57;;;0.47;;
49548;SDS011;35450;44.518;7.466;2024-03-25T09:20:30;1.55;;;0.40;;
49548;SDS011;35450;44.518;7.466;2024-03-25T09:23:34;1.63;;;1.00;;
49548;SDS011;35450;44.518;7.466;2024-03-25T09:26:38;2.70;;;0.43;;
49548;SDS011;35450;44.518;7.466;2024-03-25T09:29:42;2.15;;;0.40;;
49548;SDS011;35450;44.518;7.466;2024-03-25T09:32:46;0.68;;;0.40;;
49548;SDS011;35450;44.518;7.466;2024-03-25T09:35:51;1.75;;;0.50;;
49548;SDS011;35450;44.518;7.466;2024-03-25T09:38:55;2.10;;;0.60;;
49548;SDS011;35450;44.518;7.466;2024-03-25T09:41:59;4.72;;;0.50;;
49548;SDS011;35450;44.518;7.466;2024-03-25T09:45:06;3.38;;;0.90;;
49548;SDS011;35450;44.518;7.466;2024-03-25T09:48:11;1.23;;;0.28;;
49548;SDS011;35450;44.518;7.466;2024-03-25T09:51:17;0.82;;;0.45;;
49548;SDS011;35450;44.518;7.466;2024-03-25T09:54:22;3.35;;;0.50;;
49548;SDS011;35450;44.518;7.466;2024-03-25T09:57:26;4.22;;;0.60;;
49548;SDS011;35450;44.518;7.466;2024-03-25T10:00:31;1.30;;;0.38;;
49548;SDS011;35450;44.518;7.466;2024-03-25T10:03:35;0.82;;;0.30;;
49548;SDS011;35450;44.518;7.466;2024-03-25T10:06:39;3.60;;;0.40;;
49548;SDS011;35450;44.518;7.466;2024-03-25T10:09:43;3.10;;;0.30;;
49548;SDS011;35450;44.518;7.466;2024-03-25T10:12:48;0.52;;;0.30;;
49548;SDS011;35450;44.518;7.466;2024-03-25T10:15:52;1.15;;;0.68;;
49548;SDS011;35450;44.518;7.466;2024-03-25T10:19:01;1.80;;;0.50;;
49548;SDS011;35450;44.518;7.466;2024-03-25T10:22:05;0.63;;;0.47;;
49548;SDS011;35450;44.518;7.466;2024-03-25T10:25:22;1.00;;;0.40;;
49548;SDS011;35450;44.518;7.466;2024-03-25T10:28:30;1.98;;;0.77;;
49548;SDS011;35450;44.518;7.466;2024-03-25T10:31:35;4.88;;;1.40;;
49548;SDS011;35450;44.518;7.466;2024-03-25T10:34:39;5.15;;;0.52;;
49548;SDS011;35450;44.518;7.466;2024-03-25T10:37:44;1.48;;;0.50;;
49548;SDS011;35450;44.518;7.466;2024-03-25T10:40:48;0.85;;;0.47;;
49548;SDS011;35450;44.518;7.466;2024-03-25T10:43:55;0.82;;;0.30;;
49548;SDS011;35450;44.518;7.466;2024-03-25T10:47:03;1.58;;;0.32;;
49548;SDS011;35450;44.518;7.466;2024-03-25T10:50:11;2.03;;;0.30;;
49548;SDS011;35450;44.518;7.466;2024-03-25T10:53:19;4.10;;;0.40;;
49548;SDS011;35450;44.518;7.466;2024-03-25T10:56:24;4.95;;;0.70;;
49548;SDS011;35450;44.518;7.466;2024-03-25T10:59:28;8.13;;;0.50;;
49548;SDS011;35450;44.518;7.466;2024-03-25T11:02:33;0.70;;;0.40;;
49548;SDS011;35450;44.518;7.466;2024-03-25T11:05:38;3.30;;;0.30;;
49548;SDS011;35450;44.518;7.466;2024-03-25T11:08:43;0.98;;;0.30;;
49548;SDS011;35450;44.518;7.466;2024-03-25T11:11:54;1.92;;;0.40;;
49548;SDS011;35450;44.518;7.466;2024-03-25T11:14:58;0.60;;;0.35;;
49548;SDS011;35450;44.518;7.466;2024-03-25T11:18:10;2.42;;;0.63;;
49548;SDS011;35450;44.518;7.466;2024-03-25T11:21:24;1.98;;;0.38;;
49548;SDS011;35450;44.518;7.466;2024-03-25T11:24:28;0.77;;;0.40;;
49548;SDS011;35450;44.518;7.466;2024-03-25T11:27:35;1.52;;;0.43;;
49548;SDS011;35450;44.518;7.466;2024-03-25T11:34:28;10.45;;;0.57;;
49548;SDS011;35450;44.518;7.466;2024-03-25T11:37:32;3.00;;;0.57;;
49548;SDS011;35450;44.518;7.466;2024-03-25T11:40:45;1.35;;;0.60;;
49548;SDS011;35450;44.518;7.466;2024-03-25T11:43:50;1.75;;;0.40;;
49548;SDS011;35450;44.518;7.466;2024-03-25T11:46:55;4.68;;;0.35;;
49548;SDS011;35450;44.518;7.466;2024-03-25T11:49:59;1.83;;;0.47;;
49548;SDS011;35450;44.518;7.466;2024-03-25T11:53:04;1.23;;;0.50;;
49548;SDS011;35450;44.518;7.466;2024-03-25T11:56:10;0.70;;;0.40;;
49548;SDS011;35450;44.518;7.466;2024-03-25T11:59:14;1.25;;;0.57;;
49548;SDS011;35450;44.518;7.466;2024-03-25T12:02:19;4.88;;;1.17;;
49548;SDS011;35450;44.518;7.466;2024-03-25T12:05:23;4.47;;;0.40;;
49548;SDS011;35450;44.518;7.466;2024-03-25T12:08:27;3.40;;;0.40;;
49548;SDS011;35450;44.518;7.466;2024-03-25T12:11:33;0.60;;;0.40;;
49548;SDS011;35450;44.518;7.466;2024-03-25T12:14:37;0.50;;;0.20;;
49548;SDS011;35450;44.518;7.466;2024-03-25T12:17:41;0.98;;;0.40;;
49548;SDS011;35450;44.518;7.466;2024-03-25T12:20:47;0.93;;;0.40;;
49548;SDS011;35450;44.518;7.466;2024-03-25T12:23:51;1.27;;;0.50;;
49548;SDS011;35450;44.518;7.466;2024-03-25T12:26:57;0.70;;;0.45;;
49548;SDS011;35450;44.518;7.466;2024-03-25T12:30:02;0.30;;;0.28;;
49548;SDS011;35450;44.518;7.466;2024-03-25T12:33:11;1.65;;;0.40;;
49548;SDS011;35450;44.518;7.466;2024-03-25T12:36:15;2.95;;;0.30;;
49548;SDS011;35450;44.518;7.466;2024-03-25T12:39:19;0.95;;;0.35;;
49548;SDS011;35450;44.518;7.466;2024-03-25T12:42:23;0.93;;;0.20;;
49548;SDS011;35450;44.518;7.466;2024-03-25T12:45:29;4.20;;;0.35;;
49548;SDS011;35450;44.518;7.466;2024-03-25T12:48:33;4.82;;;0.40;;
49548;SDS011;35450;44.518;7.466;2024-03-25T12:51:37;0.70;;;0.40;;
49548;SDS011;35450;44.518;7.466;2024-03-25T12:54:41;0.63;;;0.20;;
49548;SDS011;35450;44.518;7.466;2024-03-25T12:57:45;0.70;;;0.22;;
49548;SDS011;35450;44.518;7.466;2024-03-25T13:00:49;2.05;;;0.40;;
49548;SDS011;35450;44.518;7.466;2024-03-25T13:03:53;1.15;;;0.40;;
49548;SDS011;35450;44.518;7.466;2024-03-25T13:06:57;4.45;;;0.30;;
49548;SDS011;35450;44.518;7.466;2024-03-25T13:10:01;3.72;;;0.95;;
49548;SDS011;35450;44.518;7.466;2024-03-25T13:13:06;0.73;;;0.30;;
49548;SDS011;35450;44.518;7.466;2024-03-25T13:16:10;1.65;;;1.05;;
49548;SDS011;35450;44.518;7.466;2024-03-25T13:19:14;0.60;;;0.40;;
49548;SDS011;35450;44.518;7.466;2024-03-25T13:22:19;5.72;;;0.68;;
49548;SDS011;35450;44.518;7.466;2024-03-25T13:25:23;1.02;;;0.50;;
49548;SDS011;35450;44.518;7.466;2024-03-25T13:28:26;2.47;;;0.40;;
49548;SDS011;35450;44.518;7.466;2024-03-25T13:31:30;1.13;;;0.60;;
49548;SDS011;35450;44.518;7.466;2024-03-25T13:34:34;2.13;;;0.77;;
49548;SDS011;35450;44.518;7.466;2024-03-25T13:37:39;3.13;;;0.45;;
49548;SDS011;35450;44.518;7.466;2024-03-25T13:40:42;2.83;;;0.45;;
49548;SDS011;35450;44.518;7.466;2024-03-25T13:43:47;1.98;;;0.98;;
49548;SDS011;35450;44.518;7.466;2024-03-25T13:46:51;15.57;;;0.80;;
49548;SDS011;35450;44.518;7.466;2024-03-25T13:50:02;0.40;;;0.30;;
49548;SDS011;35450;44.518;7.466;2024-03-25T13:53:08;3.17;;;0.30;;
49548;SDS011;35450;44.518;7.466;2024-03-25T13:56:13;0.85;;;0.60;;
49548;SDS011;35450;44.518;7.466;2024-03-25T13:59:17;2.55;;;0.70;;
49548;SDS011;35450;44.518;7.466;2024-03-25T14:02:23;1.40;;;0.65;;
49548;SDS011;35450;44.518;7.466;2024-03-25T14:05:27;3.30;;;0.55;;
49548;SDS011;35450;44.518;7.466;2024-03-25T14:08:31;1.38;;;0.65;;
49548;SDS011;35450;44.518;7.466;2024-03-25T14:11:36;3.90;;;0.50;;
49548;SDS011;35450;44.518;7.466;2024-03-25T14:14:40;1.98;;;0.45;;
49548;SDS011;35450;44.518;7.466;2024-03-25T14:17:45;1.80;;;0.73;;
49548;SDS011;35450;44.518;7.466;2024-03-25T14:20:51;0.70;;;0.50;;
49548;SDS011;35450;44.518;7.466;2024-03-25T14:23:55;1.10;;;0.50;;
49548;SDS011;35450;44.518;7.466;2024-03-25T14:26:59;5.65;;;1.10;;
49548;SDS011;35450;44.518;7.466;2024-03-25T14:30:03;1.45;;;0.52;;
49548;SDS011;35450;44.518;7.466;2024-03-25T14:33:10;0.70;;;0.40;;
49548;SDS011;35450;44.518;7.466;2024-03-25T14:36:16;1.42;;;0.60;;
49548;SDS011;35450;44.518;7.466;2024-03-25T14:39:20;1.05;;;0.50;;
49548;SDS011;35450;44.518;7.466;2024-03-25T14:42:24;2.78;;;0.50;;
49548;SDS011;35450;44.518;7.466;2024-03-25T14:45:28;0.77;;;0.40;;
49548;SDS011;35450;44.518;7.466;2024-03-25T14:48:33;1.80;;;0.40;;
49548;SDS011;35450;44.518;7.466;2024-03-25T14:51:37;3.08;;;0.30;;
49548;SDS011;35450;44.518;7.466;2024-03-25T14:54:41;1.70;;;0.60;;
49548;SDS011;35450;44.518;7.466;2024-03-25T14:57:45;3.55;;;0.65;;
49548;SDS011;35450;44.518;7.466;2024-03-25T15:00:49;4.00;;;0.40;;
49548;SDS011;35450;44.518;7.466;2024-03-25T15:03:53;2.20;;;0.50;;
49548;SDS011;35450;44.518;7.466;2024-03-25T15:06:57;3.45;;;0.38;;
49548;SDS011;35450;44.518;7.466;2024-03-25T15:10:01;1.92;;;0.60;;
49548;SDS011;35450;44.518;7.466;2024-03-25T15:13:05;1.45;;;0.60;;
49548;SDS011;35450;44.518;7.466;2024-03-25T15:16:10;0.98;;;0.38;;
49548;SDS011;35450;44.518;7.466;2024-03-25T15:19:15;4.20;;;0.60;;
49548;SDS011;35450;44.518;7.466;2024-03-25T15:22:20;2.80;;;0.57;;
49548;SDS011;35450;44.518;7.466;2024-03-25T15:25:24;1.42;;;0.57;;
49548;SDS011;35450;44.518;7.466;2024-03-25T15:28:30;8.18;;;0.70;;
49548;SDS011;35450;44.518;7.466;2024-03-25T15:31:34;2.58;;;0.57;;
49548;SDS011;35450;44.518;7.466;2024-03-25T15:34:39;0.68;;;0.60;;
49548;SDS011;35450;44.518;7.466;2024-03-25T15:37:43;3.10;;;0.50;;
49548;SDS011;35450;44.518;7.466;2024-03-25T15:40:47;1.73;;;0.57;;
49548;SDS011;35450;44.518;7.466;2024-03-25T15:43:55;3.42;;;0.50;;
49548;SDS011;35450;44.518;7.466;2024-03-25T15:46:59;0.85;;;0.60;;
49548;SDS011;35450;44.518;7.466;2024-03-25T15:50:03;2.30;;;0.40;;
49548;SDS011;35450;44.518;7.466;2024-03-25T15:53:08;0.90;;;0.60;;
49548;SDS011;35450;44.518;7.466;2024-03-25T15:56:12;1.70;;;0.95;;
49548;SDS011;35450;44.518;7.466;2024-03-25T15:59:16;8.38;;;1.65;;
49548;SDS011;35450;44.518;7.466;2024-03-25T16:02:23;4.78;;;2.75;;
49548;SDS011;35450;44.518;7.466;2024-03-25T16:05:28;5.10;;;1.50;;
49548;SDS011;35450;44.518;7.466;2024-03-25T16:08:32;3.95;;;0.65;;
49548;SDS011;35450;44.518;7.466;2024-03-25T16:11:37;3.65;;;1.02;;
49548;SDS011;35450;44.518;7.466;2024-03-25T16:14:41;4.18;;;1.02;;
49548;SDS011;35450;44.518;7.466;2024-03-25T16:17:47;7.28;;;1.92;;
49548;SDS011;35450;44.518;7.466;2024-03-25T16:20:51;4.05;;;2.53;;
49548;SDS011;35450;44.518;7.466;2024-03-25T16:23:55;13.65;;;5.53;;
49548;SDS011;35450;44.518;7.466;2024-03-25T16:27:00;10.80;;;5.57;;
49548;SDS011;35450;44.518;7.466;2024-03-25T16:30:04;12.23;;;5.85;;
49548;SDS011;35450;44.518;7.466;2024-03-25T16:33:08;18.02;;;8.70;;
49548;SDS011;35450;44.518;7.466;2024-03-25T16:36:12;16.25;;;6.38;;
49548;SDS011;35450;44.518;7.466;2024-03-25T16:39:16;17.85;;;5.55;;
49548;SDS011;35450;44.518;7.466;2024-03-25T16:42:21;12.45;;;4.75;;
49548;SDS011;35450;44.518;7.466;2024-03-25T16:45:26;8.57;;;2.10;;
49548;SDS011;35450;44.518;7.466;2024-03-25T16:48:30;8.43;;;3.38;;
49548;SDS011;35450;44.518;7.466;2024-03-25T16:51:33;3.40;;;1.40;;
49548;SDS011;35450;44.518;7.466;2024-03-25T16:54:38;4.18;;;1.73;;
49548;SDS011;35450;44.518;7.466;2024-03-25T16:57:42;5.63;;;1.27;;
49548;SDS011;35450;44.518;7.466;2024-03-25T17:00:48;1.98;;;1.00;;
49548;SDS011;35450;44.518;7.466;2024-03-25T17:03:52;0.93;;;0.70;;
49548;SDS011;35450;44.518;7.466;2024-03-25T17:06:56;10.18;;;2.72;;
49548;SDS011;35450;44.518;7.466;2024-03-25T17:10:00;1.83;;;1.10;;
49548;SDS011;35450;44.518;7.466;2024-03-25T17:13:04;1.83;;;1.10;;
49548;SDS011;35450;44.518;7.466;2024-03-25T17:16:08;7.97;;;1.08;;
49548;SDS011;35450;44.518;7.466;2024-03-25T17:19:12;3.55;;;0.60;;
49548;SDS011;35450;44.518;7.466;2024-03-25T17:22:16;6.75;;;1.67;;
49548;SDS011;35450;44.518;7.466;2024-03-25T17:25:23;4.32;;;1.35;;
49548;SDS011;35450;44.518;7.466;2024-03-25T17:28:27;3.03;;;1.10;;
49548;SDS011;35450;44.518;7.466;2024-03-25T17:31:36;2.08;;;0.80;;
49548;SDS011;35450;44.518;7.466;2024-03-25T17:34:40;2.78;;;1.83;;
49548;SDS011;35450;44.518;7.466;2024-03-25T17:37:44;3.85;;;0.95;;
49548;SDS011;35450;44.518;7.466;2024-03-25T17:40:49;5.93;;;1.20;;
49548;SDS011;35450;44.518;7.466;2024-03-25T17:43:53;7.38;;;1.98;;
49548;SDS011;35450;44.518;7.466;2024-03-25T17:46:57;7.40;;;3.90;;
49548;SDS011;35450;44.518;7.466;2024-03-25T17:50:02;12.85;;;5.60;;
49548;SDS011;35450;44.518;7.466;2024-03-25T17:53:09;19.45;;;5.45;;
49548;SDS011;35450;44.518;7.466;2024-03-25T17:56:13;12.02;;;5.30;;
49548;SDS011;35450;44.518;7.466;2024-03-25T17:59:17;18.23;;;4.80;;
49548;SDS011;35450;44.518;7.466;2024-03-25T18:02:21;16.25;;;6.75;;
49548;SDS011;35450;44.518;7.466;2024-03-25T18:05:25;11.32;;;3.88;;
49548;SDS011;35450;44.518;7.466;2024-03-25T18:08:30;20.20;;;10.32;;
49548;SDS011;35450;44.518;7.466;2024-03-25T18:11:34;15.55;;;4.38;;
49548;SDS011;35450;44.518;7.466;2024-03-25T18:14:38;3.35;;;1.92;;
49548;SDS011;35450;44.518;7.466;2024-03-25T18:17:43;3.22;;;1.98;;
49548;SDS011;35450;44.518;7.466;2024-03-25T18:20:47;5.50;;;2.10;;
49548;SDS011;35450;44.518;7.466;2024-03-25T18:23:52;3.50;;;2.10;;
49548;SDS011;35450;44.518;7.466;2024-03-25T18:26:56;30.27;;;21.20;;
49548;SDS011;35450;44.518;7.466;2024-03-25T18:30:00;23.70;;;15.52;;
49548;SDS011;35450;44.518;7.466;2024-03-25T18:33:04;24.58;;;12.70;;
49548;SDS011;35450;44.518;7.466;2024-03-25T18:36:09;12.07;;;6.43;;
49548;SDS011;35450;44.518;7.466;2024-03-25T18:39:14;23.50;;;18.63;;
49548;SDS011;35450;44.518;7.466;2024-03-25T18:42:18;10.38;;;7.85;;
49548;SDS011;35450;44.518;7.466;2024-03-25T18:45:22;9.40;;;4.20;;
49548;SDS011;35450;44.518;7.466;2024-03-25T18:48:27;11.70;;;3.10;;
49548;SDS011;35450;44.518;7.466;2024-03-25T18:51:31;6.82;;;2.53;;
49548;SDS011;35450;44.518;7.466;2024-03-25T18:54:35;4.93;;;2.53;;
49548;SDS011;35450;44.518;7.466;2024-03-25T18:57:39;4.07;;;1.67;;
49548;SDS011;35450;44.518;7.466;2024-03-25T19:00:43;8.23;;;1.67;;
49548;SDS011;35450;44.518;7.466;2024-03-25T19:03:47;6.05;;;2.33;;
49548;SDS011;35450;44.518;7.466;2024-03-25T19:06:51;6.22;;;3.30;;
49548;SDS011;35450;44.518;7.466;2024-03-25T19:09:55;6.28;;;3.80;;
49548;SDS011;35450;44.518;7.466;2024-03-25T19:12:59;14.32;;;7.35;;
49548;SDS011;35450;44.518;7.466;2024-03-25T19:16:03;17.83;;;10.52;;
49548;SDS011;35450;44.518;7.466;2024-03-25T19:19:08;7.07;;;3.35;;
49548;SDS011;35450;44.518;7.466;2024-03-25T19:22:12;4.60;;;2.17;;
49548;SDS011;35450;44.518;7.466;2024-03-25T19:25:16;4.90;;;2.47;;
49548;SDS011;35450;44.518;7.466;2024-03-25T19:28:23;18.40;;;8.90;;
49548;SDS011;35450;44.518;7.466;2024-03-25T19:31:27;8.07;;;4.45;;
49548;SDS011;35450;44.518;7.466;2024-03-25T19:34:32;3.80;;;1.75;;
49548;SDS011;35450;44.518;7.466;2024-03-25T19:37:36;2.90;;;1.70;;
49548;SDS011;35450;44.518;7.466;2024-03-25T19:40:40;4.13;;;2.03;;
49548;SDS011;35450;44.518;7.466;2024-03-25T19:43:44;3.28;;;2.25;;
49548;SDS011;35450;44.518;7.466;2024-03-25T19:46:47;4.47;;;2.58;;
49548;SDS011;35450;44.518;7.466;2024-03-25T19:49:52;4.63;;;2.28;;
49548;SDS011;35450;44.518;7.466;2024-03-25T19:52:56;4.80;;;2.30;;
49548;SDS011;35450;44.518;7.466;2024-03-25T19:56:01;7.32;;;3.90;;
49548;SDS011;35450;44.518;7.466;2024-03-25T19:59:05;11.95;;;4.32;;
49548;SDS011;35450;44.518;7.466;2024-03-25T20:02:09;6.35;;;3.70;;
49548;SDS011;35450;44.518;7.466;2024-03-25T20:05:14;6.38;;;3.67;;
49548;SDS011;35450;44.518;7.466;2024-03-25T20:08:18;6.63;;;3.13;;
49548;SDS011;35450;44.518;7.466;2024-03-25T20:11:22;7.70;;;3.60;;
49548;SDS011;35450;44.518;7.466;2024-03-25T20:14:26;11.90;;;3.13;;
49548;SDS011;35450;44.518;7.466;2024-03-25T20:17:30;8.25;;;1.80;;
49548;SDS011;35450;44.518;7.466;2024-03-25T20:20:35;2.90;;;1.50;;
49548;SDS011;35450;44.518;7.466;2024-03-25T20:23:39;3.97;;;1.55;;
49548;SDS011;35450;44.518;7.466;2024-03-25T20:26:43;3.95;;;1.30;;
49548;SDS011;35450;44.518;7.466;2024-03-25T20:29:46;3.97;;;1.80;;
49548;SDS011;35450;44.518;7.466;2024-03-25T20:32:51;15.82;;;1.58;;
49548;SDS011;35450;44.518;7.466;2024-03-25T20:35:56;2.92;;;1.30;;
49548;SDS011;35450;44.518;7.466;2024-03-25T20:39:00;5.72;;;1.42;;
49548;SDS011;35450;44.518;7.466;2024-03-25T20:42:04;1.48;;;1.15;;
49548;SDS011;35450;44.518;7.466;2024-03-25T20:45:08;3.83;;;1.40;;
49548;SDS011;35450;44.518;7.466;2024-03-25T20:48:12;8.55;;;1.92;;
49548;SDS011;35450;44.518;7.466;2024-03-25T20:51:16;6.97;;;2.80;;
49548;SDS011;35450;44.518;7.466;2024-03-25T20:54:20;11.75;;;4.38;;
49548;SDS011;35450;44.518;7.466;2024-03-25T20:57:24;2.78;;;1.77;;
49548;SDS011;35450;44.518;7.466;2024-03-25T21:00:28;2.83;;;1.50;;
49548;SDS011;35450;44.518;7.466;2024-03-25T21:03:32;3.80;;;1.40;;
49548;SDS011;35450;44.518;7.466;2024-03-25T21:06:37;4.63;;;1.50;;
49548;SDS011;35450;44.518;7.466;2024-03-25T21:09:43;5.13;;;1.17;;
49548;SDS011;35450;44.518;7.466;2024-03-25T21:12:47;3.13;;;1.65;;
49548;SDS011;35450;44.518;7.466;2024-03-25T21:15:51;5.00;;;2.30;;
49548;SDS011;35450;44.518;7.466;2024-03-25T21:18:55;8.18;;;1.50;;
49548;SDS011;35450;44.518;7.466;2024-03-25T21:21:59;7.47;;;3.50;;
49548;SDS011;35450;44.518;7.466;2024-03-25T21:25:04;5.60;;;2.40;;
49548;SDS011;35450;44.518;7.466;2024-03-25T21:28:09;6.25;;;2.20;;
49548;SDS011;35450;44.518;7.466;2024-03-25T21:31:13;8.48;;;3.17;;
49548;SDS011;35450;44.518;7.466;2024-03-25T21:34:17;4.38;;;2.47;;
49548;SDS011;35450;44.518;7.466;2024-03-25T21:37:21;13.10;;;6.57;;
49548;SDS011;35450;44.518;7.466;2024-03-25T21:40:25;6.53;;;3.15;;
49548;SDS011;35450;44.518;7.466;2024-03-25T21:43:29;10.45;;;4.35;;
49548;SDS011;35450;44.518;7.466;2024-03-25T21:46:33;6.45;;;2.60;;
49548;SDS011;35450;44.518;7.466;2024-03-25T21:49:37;6.63;;;2.38;;
49548;SDS011;35450;44.518;7.466;2024-03-25T21:52:41;5.43;;;2.05;;
49548;SDS011;35450;44.518;7.466;2024-03-25T21:55:45;3.83;;;2.47;;
49548;SDS011;35450;44.518;7.466;2024-03-25T21:58:49;4.55;;;2.17;;
49548;SDS011;35450;44.518;7.466;2024-03-25T22:01:53;6.32;;;2.20;;
49548;SDS011;35450;44.518;7.466;2024-03-25T22:04:57;4.25;;;1.80;;
49548;SDS011;35450;44.518;7.466;2024-03-25T22:08:01;5.80;;;2.83;;
49548;SDS011;35450;44.518;7.466;2024-03-25T22:11:06;7.55;;;1.65;;
